Terminal Aerodrome Forecast
Issued by NWS

Home | Current Version | Previous Version | Text Only | Print | Product List | Glossary On
Versions: 1 2 3 4 5 6 7 8 9 10 11 12 13 14 15 16 17 18 19 20 21 22 23 24 25 26 27 28
018
FTUS46 KMTR 140529
TAFSFO
TAF
KSFO 140529Z 1406/1512 29012G18KT P6SM SCT250
     FM141700 32007KT P6SM FEW250
     FM142100 30018G24KT P6SM SKC
     FM150300 29012G18KT P6SM SKC=

USA.gov is the U.S. government's official web portal to all federal, state and local government web resources and services.